Lamartine, Pennsylvania
Current Conditions -  °F | °C
As of 4:35 PM on Saturday 20 Dec 2014 (Local Time) from KFKL Reporting Station
Overcast Overcast  
Wind Chill: 27°   Ceiling: 1900
Heat Index: 27°   Visibility: 10mi
Dew Point: 19°   Wind: 0mph
Humidity: 74%   Direction: NA
Pressure: 30.22"   Gusts: NA
Location:  41.22°N, 79.63°W
Report Text: KFKL 202135Z AUTO 00000KT 10SM OVC019 M03/M07 A3022 RMK AO1
Loading
Personal Weather Stations






























Interactive Weather Map New forecast layout! Learn more

10-Day Weather Forecast

Advertisements
Track Severe Weather on mobile